createdAt,value
2017-08-23T00:01:24.744Z,92.00
2017-08-23T00:03:52.548Z,92.27
2017-08-23T00:06:20.412Z,92.57
2017-08-23T00:08:48.243Z,92.22
2017-08-23T00:11:16.093Z,91.82
2017-08-23T00:13:43.894Z,91.60
2017-08-23T00:16:11.707Z,91.42
2017-08-23T00:18:39.552Z,91.10
2017-08-23T00:21:07.329Z,91.07
2017-08-23T00:23:35.180Z,91.04
2017-08-23T00:26:02.953Z,91.60
2017-08-23T00:28:30.856Z,91.82
2017-08-23T00:30:58.705Z,91.64
2017-08-23T00:33:26.566Z,91.70
2017-08-23T00:35:54.353Z,91.91
2017-08-23T00:38:22.164Z,92.04
2017-08-23T00:40:49.982Z,92.37
2017-08-23T00:43:17.830Z,92.28
2017-08-23T00:45:45.623Z,92.09
2017-08-23T00:48:13.513Z,91.79
2017-08-23T00:50:41.307Z,91.46
2017-08-23T00:53:09.102Z,91.61
2017-08-23T00:55:36.890Z,91.79
2017-08-23T00:58:04.724Z,92.07
2017-08-23T01:00:32.599Z,92.30
2017-08-23T01:03:00.411Z,92.39
2017-08-23T01:05:28.193Z,92.69
2017-08-23T01:07:56.013Z,92.57
2017-08-23T01:10:23.868Z,92.25
2017-08-23T01:12:51.654Z,91.89
2017-08-23T01:15:19.495Z,91.72
2017-08-23T01:17:47.279Z,92.03
2017-08-23T01:20:15.131Z,92.23
2017-08-23T01:22:42.903Z,92.27
2017-08-23T01:25:10.705Z,92.50
2017-08-23T01:27:38.517Z,92.60
2017-08-23T01:30:06.310Z,92.63
2017-08-23T01:32:34.197Z,92.74
2017-08-23T01:35:02.002Z,92.78
2017-08-23T01:37:29.840Z,92.82
2017-08-23T01:39:57.617Z,92.69
2017-08-23T01:42:25.457Z,92.90
2017-08-23T01:44:53.235Z,93.12
2017-08-23T01:47:21.092Z,93.13
2017-08-23T01:49:48.862Z,92.87
2017-08-23T01:52:16.692Z,92.89
2017-08-23T01:54:44.414Z,93.03
2017-08-23T01:57:12.232Z,92.48
2017-08-23T01:59:40.041Z,92.04
2017-08-23T02:02:07.893Z,91.92
2017-08-23T02:04:35.700Z,91.86
2017-08-23T02:07:03.487Z,91.80
2017-08-23T02:09:31.310Z,91.91
2017-08-23T02:11:59.118Z,91.73
2017-08-23T02:14:26.972Z,91.94
2017-08-23T02:16:54.748Z,92.14
2017-08-23T02:19:22.556Z,92.26
2017-08-23T02:21:50.332Z,92.35
2017-08-23T02:24:18.203Z,92.46
2017-08-23T02:26:46.014Z,92.58
2017-08-23T02:29:13.852Z,92.74
2017-08-23T02:31:41.664Z,92.75
2017-08-23T02:34:09.513Z,92.42
2017-08-23T02:36:37.293Z,92.37
2017-08-23T02:39:05.212Z,92.82
2017-08-23T02:41:33.041Z,93.17
2017-08-23T02:44:00.883Z,93.39
2017-08-23T02:46:28.649Z,93.18
2017-08-23T02:48:56.437Z,93.21
2017-08-23T02:51:24.259Z,93.17
2017-08-23T02:53:51.965Z,93.19
2017-08-23T02:56:19.802Z,93.27
2017-08-23T02:58:47.585Z,93.37
2017-08-23T03:01:15.405Z,93.50
2017-08-23T03:03:43.195Z,93.47
2017-08-23T03:06:11.015Z,93.10
2017-08-23T03:08:38.823Z,92.79
2017-08-23T03:11:06.691Z,92.55
2017-08-23T03:13:34.468Z,92.40
2017-08-23T03:16:02.309Z,92.37
2017-08-23T03:18:30.105Z,92.49
2017-08-23T03:20:57.946Z,92.76
2017-08-23T03:23:25.744Z,93.07
2017-08-23T03:25:53.599Z,93.35
2017-08-23T03:28:21.386Z,93.47
2017-08-23T03:30:49.236Z,93.57
2017-08-23T03:33:17.086Z,93.15
2017-08-23T03:35:44.894Z,92.72
2017-08-23T03:38:12.722Z,92.38
2017-08-23T03:40:40.511Z,92.07
2017-08-23T03:43:08.351Z,91.89
2017-08-23T03:45:36.130Z,91.94
2017-08-23T03:48:03.931Z,92.42
2017-08-23T03:50:31.732Z,92.63
2017-08-23T03:52:59.593Z,92.40
2017-08-23T03:55:27.398Z,92.17
2017-08-23T03:57:55.216Z,92.22
2017-08-23T04:00:23.006Z,92.48
2017-08-23T04:02:50.826Z,92.94
2017-08-23T04:05:18.625Z,93.08
2017-08-23T04:07:46.327Z,93.17
2017-08-23T04:10:14.170Z,93.44
2017-08-23T04:12:41.964Z,93.30
2017-08-23T04:15:09.851Z,92.92
2017-08-23T04:17:37.663Z,92.64
2017-08-23T04:20:05.496Z,92.41
2017-08-23T04:22:33.336Z,92.26
2017-08-23T04:25:01.173Z,92.16
2017-08-23T04:27:28.996Z,91.93
2017-08-23T04:29:56.832Z,91.78
2017-08-23T04:32:24.544Z,91.62
2017-08-23T04:34:52.393Z,91.78
2017-08-23T04:37:20.179Z,92.01
2017-08-23T04:39:47.996Z,92.07
2017-08-23T04:42:15.790Z,91.91
2017-08-23T04:44:43.512Z,91.72
2017-08-23T04:47:11.270Z,91.88
2017-08-23T04:49:38.964Z,92.23
2017-08-23T04:52:06.696Z,92.51
2017-08-23T04:54:34.397Z,92.98
2017-08-23T04:57:02.173Z,93.38
2017-08-23T04:59:29.890Z,93.72
2017-08-23T05:01:57.625Z,93.75
2017-08-23T05:04:25.363Z,93.54
2017-08-23T05:06:53.157Z,93.13
2017-08-23T05:09:20.893Z,92.70
2017-08-23T05:11:48.649Z,92.27
2017-08-23T05:14:16.377Z,92.00
2017-08-23T05:16:44.129Z,91.89
2017-08-23T05:19:11.880Z,91.76
2017-08-23T05:21:39.628Z,91.77
2017-08-23T05:24:07.321Z,91.91
2017-08-23T05:26:35.115Z,92.12
2017-08-23T05:29:02.822Z,92.41
2017-08-23T05:31:30.544Z,92.76
2017-08-23T05:33:58.309Z,93.05
2017-08-23T05:36:26.012Z,93.35
2017-08-23T05:38:53.771Z,93.45
2017-08-23T05:41:21.493Z,93.42
2017-08-23T05:43:49.247Z,93.36
2017-08-23T05:46:16.960Z,93.17
2017-08-23T05:48:44.706Z,92.92
2017-08-23T05:51:12.416Z,92.59
2017-08-23T05:53:40.193Z,91.97
2017-08-23T05:56:07.897Z,91.37
2017-08-23T05:58:35.615Z,91.27
2017-08-23T06:01:03.436Z,91.32
2017-08-23T06:03:31.171Z,91.40
2017-08-23T06:05:58.964Z,91.29
2017-08-23T06:08:26.672Z,91.42
2017-08-23T06:10:54.429Z,91.59
2017-08-23T06:13:22.137Z,91.72
2017-08-23T06:15:49.911Z,91.78
2017-08-23T06:18:17.645Z,92.02
2017-08-23T06:20:45.439Z,92.04
2017-08-23T06:23:13.188Z,92.08
2017-08-23T06:25:40.976Z,92.47
2017-08-23T06:28:08.696Z,92.62
2017-08-23T06:30:36.387Z,92.88
2017-08-23T06:33:04.123Z,92.85
2017-08-23T06:35:31.840Z,92.35
2017-08-23T06:37:59.602Z,91.96
2017-08-23T06:40:27.355Z,91.30
2017-08-23T06:42:55.136Z,90.48
2017-08-23T06:45:22.857Z,90.04
2017-08-23T06:47:50.647Z,89.88
2017-08-23T06:50:18.434Z,89.82
2017-08-23T06:52:46.333Z,89.80
2017-08-23T06:55:14.159Z,89.75
2017-08-23T06:57:41.978Z,89.77
2017-08-23T07:00:09.757Z,90.38
2017-08-23T07:02:37.622Z,90.17
2017-08-23T07:05:05.392Z,90.49
2017-08-23T07:07:33.267Z,90.00
2017-08-23T07:10:01.060Z,89.62
2017-08-23T07:12:28.854Z,89.08
2017-08-23T07:14:56.600Z,88.26
2017-08-23T07:17:24.602Z,87.88
2017-08-23T07:19:52.337Z,87.57
2017-08-23T07:22:20.193Z,87.09
2017-08-23T07:24:47.975Z,86.81
2017-08-23T07:27:15.724Z,85.73
2017-08-23T07:29:43.592Z,85.28
2017-08-23T07:32:11.456Z,85.73
2017-08-23T07:34:39.254Z,84.25
2017-08-23T07:37:07.005Z,84.98
2017-08-23T07:39:34.775Z,84.29
2017-08-23T07:42:05.131Z,83.71
2017-08-23T07:44:32.915Z,82.88
2017-08-23T07:47:00.698Z,82.66
2017-08-23T07:49:28.504Z,82.47
2017-08-23T07:51:56.281Z,80.99
2017-08-23T07:54:24.028Z,80.62
2017-08-23T07:56:51.895Z,79.88
2017-08-23T07:59:19.629Z,80.34
2017-08-23T08:01:47.410Z,80.23
2017-08-23T08:04:15.229Z,80.81
2017-08-23T08:06:43.156Z,78.76
2017-08-23T08:09:10.947Z,78.22
2017-08-23T08:11:38.825Z,77.32
2017-08-23T08:14:06.623Z,77.24
2017-08-23T08:16:34.523Z,76.67
2017-08-23T08:19:02.374Z,76.39
2017-08-23T08:21:30.238Z,77.39
2017-08-23T08:23:58.059Z,76.68
2017-08-23T08:26:25.803Z,72.54
2017-08-23T08:28:53.612Z,71.24
2017-08-23T08:31:21.341Z,71.74
2017-08-23T08:33:49.120Z,72.17
2017-08-23T08:36:16.904Z,71.99
2017-08-23T08:38:44.684Z,70.69
2017-08-23T08:41:12.431Z,71.36
2017-08-23T08:43:40.309Z,70.65
2017-08-23T08:46:08.013Z,70.74
2017-08-23T08:48:35.877Z,67.66
2017-08-23T08:51:03.597Z,69.96
2017-08-23T08:53:31.529Z,69.13
2017-08-23T08:55:59.286Z,69.21
2017-08-23T08:58:27.096Z,66.37
2017-08-23T09:00:54.911Z,66.82
2017-08-23T09:03:22.686Z,66.02
2017-08-23T09:05:50.421Z,66.27
2017-08-23T09:08:18.181Z,67.54
2017-08-23T09:10:46.040Z,66.11
2017-08-23T09:13:13.869Z,64.59
2017-08-23T09:15:41.704Z,65.19
2017-08-23T09:18:09.534Z,66.48
2017-08-23T09:20:37.273Z,63.87
2017-08-23T09:23:05.082Z,63.86
2017-08-23T09:25:32.999Z,64.59
2017-08-23T09:28:00.825Z,63.65
2017-08-23T09:30:28.696Z,64.38
2017-08-23T09:32:56.536Z,65.05
2017-08-23T09:35:24.388Z,66.40
2017-08-23T09:37:52.123Z,67.78
2017-08-23T09:40:19.973Z,68.01
2017-08-23T09:42:47.768Z,68.14
2017-08-23T09:45:15.573Z,68.79
2017-08-23T09:47:43.427Z,70.52
2017-08-23T09:50:11.228Z,69.87
2017-08-23T09:52:39.073Z,69.86
2017-08-23T09:55:06.874Z,65.75
2017-08-23T09:57:34.754Z,67.87
2017-08-23T10:00:02.565Z,66.70
2017-08-23T10:02:30.392Z,67.17
2017-08-23T10:04:59.145Z,64.93
2017-08-23T10:07:26.993Z,63.20
2017-08-23T10:09:54.811Z,64.63
2017-08-23T10:12:22.711Z,65.58
2017-08-23T10:14:50.484Z,65.51
2017-08-23T10:17:18.323Z,68.37
2017-08-23T10:19:46.119Z,67.85
2017-08-23T10:22:13.995Z,63.63
2017-08-23T10:24:41.805Z,63.87
2017-08-23T10:27:09.660Z,64.50
2017-08-23T10:29:37.473Z,66.95
2017-08-23T10:32:05.342Z,68.41
2017-08-23T10:34:33.228Z,68.33
2017-08-23T10:37:01.035Z,70.05
2017-08-23T10:39:28.893Z,69.82
2017-08-23T10:41:56.735Z,68.32
2017-08-23T10:44:24.594Z,68.33
2017-08-23T10:46:52.413Z,68.36
2017-08-23T10:49:20.262Z,65.59
2017-08-23T10:51:48.102Z,64.84
2017-08-23T10:54:15.982Z,62.74
2017-08-23T10:56:43.800Z,58.13
2017-08-23T10:59:11.680Z,59.14
2017-08-23T11:01:39.504Z,59.61
2017-08-23T11:04:07.348Z,58.87
2017-08-23T11:06:35.196Z,58.71
2017-08-23T11:09:03.127Z,54.81
2017-08-23T11:11:30.943Z,52.40
2017-08-23T11:13:59.715Z,55.01
2017-08-23T11:16:27.570Z,56.39
2017-08-23T11:18:55.432Z,56.10
2017-08-23T11:21:23.297Z,55.35
2017-08-23T11:23:51.169Z,55.26
2017-08-23T11:26:19.012Z,54.97
2017-08-23T11:28:46.783Z,54.75
2017-08-23T11:31:15.768Z,54.93
2017-08-23T11:33:43.653Z,54.08
2017-08-23T11:36:11.502Z,51.32
2017-08-23T11:38:39.319Z,53.65
2017-08-23T11:41:07.215Z,51.03
2017-08-23T11:43:35.095Z,53.20
2017-08-23T11:46:02.934Z,53.08
2017-08-23T11:48:30.772Z,51.33
2017-08-23T11:50:58.648Z,52.02
2017-08-23T11:53:26.403Z,49.95
2017-08-23T11:55:54.224Z,49.97
2017-08-23T11:58:22.120Z,51.60
2017-08-23T12:00:49.868Z,54.69
2017-08-23T12:03:17.748Z,53.10
2017-08-23T12:05:45.548Z,52.46
2017-08-23T12:08:13.382Z,53.87
2017-08-23T12:10:41.189Z,53.88
2017-08-23T12:13:09.095Z,53.28
2017-08-23T12:15:36.908Z,52.95
2017-08-23T12:18:04.804Z,52.46
2017-08-23T12:20:32.649Z,49.94
2017-08-23T12:23:00.431Z,51.59
2017-08-23T12:25:28.154Z,52.18
2017-08-23T12:27:56.091Z,53.11
2017-08-23T12:30:23.836Z,49.95
2017-08-23T12:32:51.685Z,49.95
2017-08-23T12:35:19.443Z,50.62
2017-08-23T12:37:47.206Z,51.97
2017-08-23T12:40:15.051Z,49.89
2017-08-23T12:42:42.813Z,50.73
2017-08-23T12:45:10.766Z,52.21
2017-08-23T12:47:38.570Z,49.73
2017-08-23T12:50:06.443Z,51.12
2017-08-23T12:52:34.179Z,52.22
2017-08-23T12:55:02.096Z,53.21
2017-08-23T12:57:29.831Z,49.05
2017-08-23T12:59:57.649Z,50.13
2017-08-23T13:02:25.386Z,50.94
2017-08-23T13:04:53.182Z,49.68
2017-08-23T13:07:20.907Z,50.78
2017-08-23T13:09:48.732Z,51.04
2017-08-23T13:12:16.495Z,50.48
2017-08-23T13:14:44.217Z,49.02
2017-08-23T13:17:12.076Z,50.17
2017-08-23T13:19:39.871Z,49.18
2017-08-23T13:22:07.707Z,48.34
2017-08-23T13:24:35.478Z,49.19
2017-08-23T13:27:03.357Z,50.13
2017-08-23T13:29:31.116Z,50.82
2017-08-23T13:31:59.053Z,48.68
2017-08-23T13:34:26.885Z,50.47
2017-08-23T13:36:54.774Z,49.18
2017-08-23T13:39:22.571Z,48.30
2017-08-23T13:41:50.455Z,48.32
2017-08-23T13:44:18.287Z,48.18
2017-08-23T13:46:46.058Z,47.78
2017-08-23T13:49:13.891Z,50.83
2017-08-23T13:51:41.755Z,48.95
2017-08-23T13:54:09.633Z,49.35
2017-08-23T13:56:37.452Z,50.42
2017-08-23T13:59:05.322Z,49.10
2017-08-23T14:01:33.163Z,49.47
2017-08-23T14:04:01.017Z,50.27
2017-08-23T14:06:28.872Z,52.49
2017-08-23T14:08:56.712Z,53.02
2017-08-23T14:11:24.534Z,53.06
2017-08-23T14:13:52.398Z,53.30
2017-08-23T14:16:20.194Z,53.85
2017-08-23T14:18:48.044Z,53.78
2017-08-23T14:21:15.827Z,52.61
2017-08-23T14:23:43.668Z,54.42
2017-08-23T14:26:11.470Z,53.31
2017-08-23T14:28:39.303Z,52.53
2017-08-23T14:31:07.152Z,51.70
2017-08-23T14:33:34.887Z,51.33
2017-08-23T14:36:02.776Z,51.23
2017-08-23T14:38:30.611Z,49.90
2017-08-23T14:40:58.397Z,47.76
2017-08-23T14:43:26.117Z,47.73
2017-08-23T14:45:53.934Z,48.89
2017-08-23T14:48:21.638Z,50.75
2017-08-23T14:50:49.420Z,50.25
2017-08-23T14:53:17.159Z,49.62
2017-08-23T14:55:46.744Z,48.90
2017-08-23T14:58:14.522Z,46.55
2017-08-23T15:00:42.267Z,47.62
2017-08-23T15:03:10.069Z,49.63
2017-08-23T15:05:37.941Z,49.70
2017-08-23T15:08:05.748Z,48.83
2017-08-23T15:10:33.539Z,51.75
2017-08-23T15:13:01.340Z,48.61
2017-08-23T15:15:29.162Z,48.77
2017-08-23T15:17:57.034Z,50.09
2017-08-23T15:20:24.874Z,52.06
2017-08-23T15:23:00.662Z,52.89
2017-08-23T15:25:28.490Z,51.74
2017-08-23T15:27:56.345Z,50.95
2017-08-23T15:30:24.161Z,50.81
2017-08-23T15:32:52.043Z,50.62
2017-08-23T15:35:19.901Z,49.38
2017-08-23T15:37:47.803Z,49.75
2017-08-23T15:40:15.658Z,48.76
2017-08-23T15:42:43.555Z,49.73
2017-08-23T15:45:11.402Z,49.79
2017-08-23T15:47:39.296Z,50.62
2017-08-23T15:50:07.121Z,52.02
2017-08-23T15:52:35.020Z,51.50
2017-08-23T15:55:02.845Z,51.23
2017-08-23T15:57:30.728Z,51.89
2017-08-23T15:59:58.550Z,50.38
2017-08-23T16:02:26.368Z,50.22
2017-08-23T16:04:54.260Z,48.77
2017-08-23T16:07:22.133Z,49.44
2017-08-23T16:09:50.060Z,48.48
2017-08-23T16:12:17.897Z,50.43
2017-08-23T16:14:45.733Z,51.15
2017-08-23T16:17:13.536Z,51.39
2017-08-23T16:19:41.380Z,51.40
2017-08-23T16:22:09.201Z,48.05
2017-08-23T16:24:37.072Z,48.46
2017-08-23T16:27:05.412Z,49.11
2017-08-23T16:29:33.264Z,51.75
2017-08-23T16:32:01.025Z,53.53
2017-08-23T16:34:35.474Z,52.34
2017-08-23T16:37:03.286Z,54.89
2017-08-23T16:39:31.191Z,54.79
2017-08-23T16:41:59.090Z,53.73
2017-08-23T16:44:26.939Z,53.54
2017-08-23T16:46:54.847Z,54.09
2017-08-23T16:49:22.649Z,54.60
2017-08-23T16:51:50.558Z,57.81
2017-08-23T16:54:18.300Z,55.61
2017-08-23T16:56:46.130Z,55.54
2017-08-23T16:59:13.952Z,54.89
2017-08-23T17:01:41.845Z,56.24
2017-08-23T17:04:09.670Z,56.96
2017-08-23T17:06:37.456Z,55.91
2017-08-23T17:09:05.322Z,56.21
2017-08-23T17:11:33.243Z,55.83
2017-08-23T17:14:01.073Z,56.88
2017-08-23T17:16:28.946Z,57.50
2017-08-23T17:18:56.842Z,57.91
2017-08-23T17:21:24.684Z,59.80
2017-08-23T17:23:52.593Z,60.56
2017-08-23T17:26:20.458Z,60.13
2017-08-23T17:28:48.333Z,60.37
2017-08-23T17:31:16.052Z,61.01
2017-08-23T17:33:43.920Z,62.09
2017-08-23T17:36:11.765Z,63.13
2017-08-23T17:38:39.713Z,63.84
2017-08-23T17:41:07.559Z,64.69
2017-08-23T17:43:35.478Z,67.52
2017-08-23T17:46:03.341Z,68.98
2017-08-23T17:48:31.153Z,71.35
2017-08-23T17:50:59.007Z,73.80
2017-08-23T17:53:26.798Z,74.79
2017-08-23T17:55:55.255Z,75.63
2017-08-23T17:58:25.223Z,76.53
2017-08-23T18:00:53.269Z,76.93
2017-08-23T18:03:21.423Z,77.60
2017-08-23T18:05:49.217Z,79.09
2017-08-23T18:08:16.967Z,79.10
2017-08-23T18:10:44.788Z,79.70
2017-08-23T18:13:12.689Z,80.25
2017-08-23T18:15:40.492Z,81.06
2017-08-23T18:18:08.352Z,81.87
2017-08-23T18:20:36.175Z,82.17
2017-08-23T18:23:03.929Z,82.54
2017-08-23T18:25:31.739Z,83.19
2017-08-23T18:27:59.550Z,83.39
2017-08-23T18:30:27.318Z,83.54
2017-08-23T18:32:55.075Z,83.18
2017-08-23T18:35:22.991Z,84.10
2017-08-23T18:37:50.771Z,84.72
2017-08-23T18:40:19.813Z,85.82
2017-08-23T18:42:47.930Z,86.13
2017-08-23T18:45:15.667Z,86.68
2017-08-23T18:47:43.417Z,86.21
2017-08-23T18:50:11.223Z,86.42
2017-08-23T18:52:39.027Z,86.61
2017-08-23T18:55:06.801Z,86.56
2017-08-23T18:57:34.665Z,86.55
2017-08-23T19:00:02.424Z,86.05
2017-08-23T19:02:30.200Z,86.10
2017-08-23T19:04:57.944Z,86.13
2017-08-23T19:07:25.721Z,86.15
2017-08-23T19:09:53.483Z,86.42
2017-08-23T19:12:21.429Z,86.54
2017-08-23T19:14:49.182Z,86.65
2017-08-23T19:17:16.974Z,86.82
2017-08-23T19:19:44.747Z,86.86
2017-08-23T19:22:12.528Z,86.51
2017-08-23T19:24:40.342Z,86.87
2017-08-23T19:27:08.140Z,87.45
2017-08-23T19:29:35.935Z,87.23
2017-08-23T19:32:03.783Z,87.30
2017-08-23T19:34:31.598Z,87.73
2017-08-23T19:36:59.444Z,87.45
2017-08-23T19:39:27.244Z,87.80
2017-08-23T19:41:55.096Z,88.05
2017-08-23T19:44:22.909Z,88.60
2017-08-23T19:46:50.645Z,88.85
2017-08-23T19:49:18.509Z,89.30
2017-08-23T19:51:46.327Z,89.33
2017-08-23T19:54:14.233Z,88.61
2017-08-23T19:56:42.033Z,88.35
2017-08-23T19:59:09.902Z,88.12
2017-08-23T20:01:37.713Z,88.22
2017-08-23T20:04:05.526Z,88.60
2017-08-23T20:06:33.385Z,89.03
2017-08-23T20:09:01.239Z,89.32
2017-08-23T20:11:29.125Z,89.61
2017-08-23T20:13:56.971Z,89.57
2017-08-23T20:16:24.827Z,89.31
2017-08-23T20:18:52.574Z,89.32
2017-08-23T20:21:20.483Z,89.47
2017-08-23T20:23:48.315Z,90.12
2017-08-23T20:26:16.204Z,90.49
2017-08-23T20:28:43.965Z,90.34
2017-08-23T20:31:11.911Z,90.48
2017-08-23T20:33:39.663Z,90.43
2017-08-23T20:36:07.565Z,90.13
2017-08-23T20:38:35.358Z,90.02
2017-08-23T20:41:03.255Z,89.95
2017-08-23T20:43:30.976Z,89.64
2017-08-23T20:45:58.868Z,89.60
2017-08-23T20:48:26.748Z,89.71
2017-08-23T20:50:54.633Z,90.15
2017-08-23T20:53:22.440Z,90.14
2017-08-23T20:55:50.232Z,89.75
2017-08-23T20:58:18.106Z,89.91
2017-08-23T21:00:46.009Z,89.90
2017-08-23T21:03:13.876Z,89.97
2017-08-23T21:05:41.693Z,89.79
2017-08-23T21:08:09.510Z,90.36
2017-08-23T21:10:37.345Z,90.32
2017-08-23T21:13:05.122Z,90.22
2017-08-23T21:15:32.943Z,90.22
2017-08-23T21:18:00.807Z,89.68
2017-08-23T21:20:28.661Z,89.91
2017-08-23T21:22:56.538Z,89.98
2017-08-23T21:25:24.317Z,89.97
2017-08-23T21:27:52.159Z,89.92
2017-08-23T21:30:19.993Z,89.98
2017-08-23T21:32:47.888Z,90.14
2017-08-23T21:35:15.779Z,90.18
2017-08-23T21:37:43.578Z,90.10
2017-08-23T21:40:11.442Z,90.00
2017-08-23T21:42:39.210Z,90.08
2017-08-23T21:45:07.070Z,90.00
2017-08-23T21:47:34.887Z,90.27
2017-08-23T21:50:02.768Z,89.98
2017-08-23T21:52:30.593Z,90.15
2017-08-23T21:54:58.445Z,91.19
2017-08-23T21:57:26.266Z,91.55
2017-08-23T21:59:54.043Z,91.57
2017-08-23T22:02:21.848Z,91.59
2017-08-23T22:04:49.729Z,91.45
2017-08-23T22:07:17.539Z,91.18
2017-08-23T22:09:45.478Z,91.12
2017-08-23T22:12:13.330Z,90.89
2017-08-23T22:14:41.150Z,90.83
2017-08-23T22:17:09.039Z,90.70
2017-08-23T22:19:36.801Z,90.39
2017-08-23T22:22:04.616Z,90.54
2017-08-23T22:24:32.492Z,90.70
2017-08-23T22:27:00.332Z,90.79
2017-08-23T22:29:28.124Z,91.61
2017-08-23T22:31:56.060Z,91.75
2017-08-23T22:34:23.835Z,91.33
2017-08-23T22:36:51.657Z,90.83
2017-08-23T22:39:19.446Z,90.80
2017-08-23T22:41:47.258Z,90.92
2017-08-23T22:44:15.083Z,90.91
2017-08-23T22:46:42.808Z,90.70
2017-08-23T22:49:10.628Z,90.59
2017-08-23T22:51:38.462Z,90.38
2017-08-23T22:54:06.209Z,90.48
2017-08-23T22:56:33.919Z,90.19
2017-08-23T22:59:01.689Z,90.08
2017-08-23T23:01:29.471Z,90.14
2017-08-23T23:03:57.331Z,90.19
2017-08-23T23:06:25.039Z,90.34
2017-08-23T23:08:52.856Z,90.78
2017-08-23T23:11:20.651Z,91.59
2017-08-23T23:13:48.475Z,92.14
2017-08-23T23:16:16.268Z,92.34
2017-08-23T23:18:44.102Z,92.23
2017-08-23T23:21:11.931Z,92.10
2017-08-23T23:23:39.716Z,91.75
2017-08-23T23:26:07.565Z,91.59
2017-08-23T23:28:35.363Z,91.97
2017-08-23T23:31:03.118Z,91.85
2017-08-23T23:33:30.950Z,91.26
2017-08-23T23:35:58.781Z,91.49
2017-08-23T23:38:26.576Z,92.10
2017-08-23T23:40:54.411Z,91.80
2017-08-23T23:43:22.200Z,91.34
2017-08-23T23:45:49.944Z,91.11
2017-08-23T23:48:17.720Z,91.00
2017-08-23T23:50:45.584Z,90.99
2017-08-23T23:53:13.368Z,91.04
2017-08-23T23:55:41.200Z,91.09
2017-08-23T23:58:08.988Z,90.95
